Time;durP1;ratioP1;P1;durP2;ratioP2;P2;SDS_P1;SDS_P2;PMS_P1;PMS_P2;Temp;Humidity;BMP_temperature;BMP_pressure;BME280_temperature;BME280_humidity;BME280_pressure;Samples;Min_cycle;Max_cycle;Signal;HPM_P1;HPM_P2
2021/06/12 00:04:43;;;;;;;3.30;2.05;;;;;18.30;101494.00;;;;10483573;28;20279;-81
2021/06/12 00:09:45;;;;;;;2.67;2.00;;;;;18.20;101496.00;;;;10519245;28;20192;-82
2021/06/12 00:14:48;;;;;;;3.92;2.28;;;;;18.10;101500.00;;;;10497433;28;20200;-81
2021/06/12 00:19:50;;;;;;;5.10;2.13;;;;;18.10;101499.00;;;;10466677;28;20312;-81
2021/06/12 00:24:51;;;;;;;2.07;1.80;;;;;18.00;101489.00;;;;10513666;28;20194;-82
2021/06/12 00:29:53;;;;;;;2.30;2.10;;;;;18.00;101493.00;;;;10500233;28;20190;-81
2021/06/12 00:34:55;;;;;;;4.43;2.60;;;;;17.90;101497.00;;;;10464607;28;20220;-81
2021/06/12 00:39:57;;;;;;;3.37;2.03;;;;;17.80;101495.00;;;;10483367;28;20231;-81
2021/06/12 00:44:59;;;;;;;3.07;2.13;;;;;17.80;101490.00;;;;10489029;28;20212;-80
2021/06/12 00:50:03;;;;;;;2.80;2.40;;;;;17.70;101482.00;;;;10502861;28;20247;-81
2021/06/12 00:55:06;;;;;;;3.50;2.13;;;;;17.60;101495.00;;;;10519509;28;20218;-81
2021/06/12 01:00:11;;;;;;;6.53;2.77;;;;;17.60;101483.00;;;;10554448;28;20216;-81
2021/06/12 01:05:16;;;;;;;3.23;2.03;;;;;17.50;101477.00;;;;10510847;28;20197;-81
2021/06/12 01:10:19;;;;;;;4.53;2.63;;;;;17.40;101475.00;;;;10494517;28;20182;-81
2021/06/12 01:15:25;;;;;;;3.60;2.80;;;;;17.30;101472.00;;;;10519102;28;20239;-81
2021/06/12 01:20:52;;;;;;;2.87;2.63;;;;;17.30;101480.00;;;;10520586;28;20232;-81
2021/06/12 01:26:05;;;;;;;3.53;3.00;;;;;17.20;101470.00;;;;10500919;28;20272;-81
2021/06/12 01:31:09;;;;;;;4.40;3.00;;;;;17.10;101464.00;;;;10501969;28;20261;-81
2021/06/12 01:36:13;;;;;;;5.03;3.33;;;;;17.00;101477.00;;;;10488281;28;20221;-80
2021/06/12 01:41:19;;;;;;;5.47;3.50;;;;;16.90;101479.00;;;;10538547;28;20230;-81
2021/06/12 01:46:24;;;;;;;6.53;3.87;;;;;16.90;101481.00;;;;10487070;28;20196;-81
2021/06/12 01:51:26;;;;;;;6.93;3.63;;;;;16.80;101492.00;;;;10469436;28;20196;-81
2021/06/12 01:56:29;;;;;;;5.70;3.97;;;;;16.70;101486.00;;;;10508639;28;20193;-81
2021/06/12 02:01:32;;;;;;;6.00;3.70;;;;;16.60;101496.00;;;;10516954;28;20450;-81
2021/06/12 02:06:35;;;;;;;4.03;3.63;;;;;16.50;101502.00;;;;10495033;28;20635;-81
2021/06/12 02:11:38;;;;;;;4.50;3.40;;;;;16.40;101501.00;;;;10511059;28;20291;-81
2021/06/12 02:16:41;;;;;;;4.73;3.67;;;;;16.40;101503.00;;;;10511272;28;20193;-81
2021/06/12 02:21:44;;;;;;;7.43;3.97;;;;;16.30;101516.00;;;;10485130;28;20259;-81
2021/06/12 02:26:51;;;;;;;6.80;4.07;;;;;16.20;101512.00;;;;10478936;28;20225;-81
2021/06/12 02:32:02;;;;;;;5.93;4.00;;;;;16.20;101508.00;;;;10454628;28;20221;-81
2021/06/12 02:37:06;;;;;;;5.80;4.07;;;;;16.10;101517.00;;;;10511071;28;20197;-80
2021/06/12 02:42:10;;;;;;;5.00;3.80;;;;;16.10;101513.00;;;;10526070;28;20687;-80
2021/06/12 02:47:13;;;;;;;7.37;5.13;;;;;16.10;101515.00;;;;10467333;28;20201;-81
2021/06/12 02:52:25;;;;;;;7.23;4.87;;;;;16.10;101518.00;;;;10478847;28;20194;-80
2021/06/12 02:57:29;;;;;;;7.33;5.20;;;;;16.10;101520.00;;;;10481457;28;20332;-80
2021/06/12 03:02:36;;;;;;;7.13;4.43;;;;;16.00;101540.00;;;;10521016;28;20257;-82
2021/06/12 03:07:38;;;;;;;6.57;4.87;;;;;16.00;101536.00;;;;10524749;28;20197;-83
2021/06/12 03:12:41;;;;;;;6.53;5.83;;;;;15.90;101528.00;;;;10467742;28;20255;-83
2021/06/12 03:17:45;;;;;;;10.13;6.93;;;;;15.90;101522.00;;;;10482884;28;20197;-82
2021/06/12 03:22:50;;;;;;;8.80;7.20;;;;;15.90;101520.00;;;;10491705;28;20196;-82
2021/06/12 03:27:52;;;;;;;10.83;7.47;;;;;16.00;101507.00;;;;10482963;28;20185;-81
2021/06/12 03:32:56;;;;;;;10.67;7.60;;;;;16.10;101508.00;;;;10528023;28;20217;-82
2021/06/12 03:37:58;;;;;;;10.17;8.57;;;;;16.20;101508.00;;;;10506439;28;20208;-82
2021/06/12 03:43:02;;;;;;;12.97;10.00;;;;;16.30;101512.00;;;;10487555;28;20209;-82
2021/06/12 03:48:06;;;;;;;12.27;9.83;;;;;16.30;101515.00;;;;10503003;28;20643;-82
2021/06/12 03:53:08;;;;;;;13.50;10.50;;;;;16.40;101507.00;;;;10505069;28;20189;-82
2021/06/12 03:58:10;;;;;;;13.83;10.97;;;;;16.50;101494.00;;;;10485982;28;20225;-82
2021/06/12 04:03:12;;;;;;;14.97;10.90;;;;;16.50;101502.00;;;;10484550;28;20288;-82
2021/06/12 04:08:14;;;;;;;15.50;12.20;;;;;16.60;101500.00;;;;10488525;28;20644;-82
2021/06/12 04:13:16;;;;;;;16.37;11.67;;;;;16.60;101498.00;;;;10500225;28;20591;-81
2021/06/12 04:18:18;;;;;;;23.77;14.17;;;;;16.70;101497.00;;;;10488482;28;20679;-81
2021/06/12 04:23:20;;;;;;;20.93;14.87;;;;;16.70;101498.00;;;;10486659;28;20300;-81
2021/06/12 04:28:23;;;;;;;22.17;14.33;;;;;16.60;101505.00;;;;10488152;28;20189;-81
2021/06/12 04:33:25;;;;;;;23.40;14.87;;;;;16.80;101515.00;;;;10469650;28;20210;-81
2021/06/12 04:38:27;;;;;;;21.73;15.00;;;;;16.80;101514.00;;;;10516446;28;20721;-81
2021/06/12 04:43:28;;;;;;;20.23;14.57;;;;;16.90;101509.00;;;;10506016;28;20200;-81
2021/06/12 04:48:30;;;;;;;21.60;14.70;;;;;17.00;101528.00;;;;10487394;28;20213;-81
2021/06/12 04:53:32;;;;;;;26.37;16.60;;;;;17.00;101521.00;;;;10449576;28;20926;-81
2021/06/12 04:58:34;;;;;;;21.90;16.20;;;;;17.10;101524.00;;;;10502441;28;20209;-82
2021/06/12 05:03:36;;;;;;;23.70;16.43;;;;;17.20;101527.00;;;;10489178;28;20197;-82
2021/06/12 05:08:38;;;;;;;23.43;15.40;;;;;17.30;101534.00;;;;10513749;28;20585;-81
2021/06/12 05:13:39;;;;;;;21.47;15.07;;;;;17.40;101529.00;;;;10502715;28;20197;-81
2021/06/12 05:18:44;;;;;;;28.90;16.90;;;;;17.50;101535.00;;;;10490114;28;20316;-81
2021/06/12 05:23:46;;;;;;;23.33;15.90;;;;;17.50;101543.00;;;;10509148;28;21244;-81
2021/06/12 05:28:48;;;;;;;21.70;15.33;;;;;17.30;101546.00;;;;10508790;28;20189;-81
2021/06/12 05:33:50;;;;;;;22.03;15.63;;;;;17.30;101562.00;;;;10524644;28;20217;-81
2021/06/12 05:38:52;;;;;;;24.93;15.27;;;;;17.30;101557.00;;;;10523742;28;20227;-81
2021/06/12 05:43:54;;;;;;;23.67;16.90;;;;;17.30;101563.00;;;;10543742;28;20288;-81
2021/06/12 05:48:56;;;;;;;22.33;16.60;;;;;17.20;101571.00;;;;10470218;28;20185;-81
2021/06/12 05:53:58;;;;;;;23.90;16.93;;;;;17.20;101581.00;;;;10498074;28;20197;-80
2021/06/12 05:59:01;;;;;;;22.63;16.07;;;;;17.30;101582.00;;;;10493706;28;20206;-80
2021/06/12 06:04:03;;;;;;;22.57;17.37;;;;;17.50;101577.00;;;;10520291;28;20188;-81
2021/06/12 06:09:05;;;;;;;24.97;18.30;;;;;17.60;101571.00;;;;10484315;28;20194;-81
2021/06/12 06:14:07;;;;;;;25.67;17.60;;;;;17.80;101573.00;;;;10484143;28;20197;-81
2021/06/12 06:19:09;;;;;;;24.63;17.03;;;;;17.80;101588.00;;;;10484176;28;20206;-81
2021/06/12 06:24:11;;;;;;;23.27;19.10;;;;;17.80;101578.00;;;;10489313;28;20911;-81
2021/06/12 06:29:13;;;;;;;27.43;19.00;;;;;17.80;101587.00;;;;10479504;28;20189;-80
2021/06/12 06:34:15;;;;;;;22.20;17.23;;;;;17.80;101592.00;;;;10529990;28;20244;-81
2021/06/12 06:39:17;;;;;;;28.27;19.07;;;;;17.90;101593.00;;;;10500273;28;20276;-81
2021/06/12 06:44:19;;;;;;;26.43;19.53;;;;;17.90;101593.00;;;;10495237;28;20193;-81
2021/06/12 06:49:22;;;;;;;28.17;20.30;;;;;17.90;101606.00;;;;10524635;28;20227;-81
2021/06/12 06:54:24;;;;;;;28.97;20.53;;;;;17.90;101614.00;;;;10483766;28;20626;-81
2021/06/12 06:59:26;;;;;;;28.07;20.53;;;;;17.90;101614.00;;;;10523531;28;20224;-80
2021/06/12 07:04:29;;;;;;;31.00;19.87;;;;;18.00;101617.00;;;;10483314;28;20269;-81
2021/06/12 07:09:31;;;;;;;28.93;22.30;;;;;18.00;101620.00;;;;10499694;28;20198;-81
2021/06/12 07:14:34;;;;;;;26.03;21.33;;;;;18.00;101624.00;;;;10501775;28;20647;-80
2021/06/12 07:19:37;;;;;;;29.90;23.03;;;;;18.20;101616.00;;;;10504932;28;20233;-81
2021/06/12 07:24:39;;;;;;;30.87;23.70;;;;;18.20;101618.00;;;;10521561;28;20195;-81
2021/06/12 07:29:41;;;;;;;28.17;22.93;;;;;17.90;101615.00;;;;10513006;28;20248;-81
2021/06/12 07:34:43;;;;;;;30.13;22.90;;;;;18.00;101625.00;;;;10504789;28;20612;-81
2021/06/12 07:39:45;;;;;;;28.90;23.57;;;;;18.00;101638.00;;;;10451975;28;20217;-81
2021/06/12 07:44:47;;;;;;;30.73;24.57;;;;;18.10;101641.00;;;;10505381;28;20189;-81
2021/06/12 07:49:51;;;;;;;29.20;23.67;;;;;18.00;101634.00;;;;10505861;28;20264;-81
2021/06/12 07:54:53;;;;;;;29.20;25.23;;;;;18.40;101631.00;;;;10478442;28;20853;-80
2021/06/12 07:59:55;;;;;;;28.37;24.33;;;;;18.80;101637.00;;;;10480344;28;20216;-81
2021/06/12 08:04:57;;;;;;;27.90;24.70;;;;;19.00;101627.00;;;;10493739;28;20224;-80
2021/06/12 08:10:02;;;;;;;28.90;22.73;;;;;18.90;101635.00;;;;10489614;28;20209;-81
2021/06/12 08:15:05;;;;;;;25.87;23.07;;;;;18.90;101629.00;;;;10481243;28;20195;-80
2021/06/12 08:20:11;;;;;;;25.52;21.98;;;;;19.00;101642.00;;;;10481476;28;20208;-80
2021/06/12 08:25:13;;;;;;;23.45;20.75;;;;;19.20;101633.00;;;;10484674;28;20299;-82
2021/06/12 08:30:16;;;;;;;24.02;20.80;;;;;19.70;101632.00;;;;10485459;28;20640;-81
2021/06/12 08:35:18;;;;;;;23.20;20.77;;;;;20.40;101626.00;;;;10473628;28;20225;-80
2021/06/12 08:40:22;;;;;;;24.63;21.80;;;;;20.90;101631.00;;;;10471133;28;20244;-82
2021/06/12 08:45:28;;;;;;;25.42;21.00;;;;;21.30;101642.00;;;;10473387;28;20189;-80
2021/06/12 08:50:31;;;;;;;26.63;20.77;;;;;21.50;101636.00;;;;10451763;28;20232;-81
2021/06/12 08:55:33;;;;;;;22.70;19.73;;;;;21.70;101638.00;;;;10484989;28;20213;-81
2021/06/12 09:00:35;;;;;;;21.23;19.10;;;;;21.60;101643.00;;;;10464606;28;20280;-81
2021/06/12 09:05:43;;;;;;;19.45;17.45;;;;;21.10;101646.00;;;;10513069;28;20224;-80
2021/06/12 09:10:47;;;;;;;21.73;19.45;;;;;21.40;101648.00;;;;10493048;28;20228;-81
2021/06/12 09:15:54;;;;;;;20.80;18.70;;;;;22.20;101633.00;;;;10507868;28;20652;-81
2021/06/12 09:20:56;;;;;;;21.08;18.92;;;;;22.30;101641.00;;;;10515290;28;20548;-80
2021/06/12 09:25:58;;;;;;;20.23;18.23;;;;;22.20;101653.00;;;;10514224;28;20235;-80
2021/06/12 09:31:23;;;;;;;22.23;19.75;;;;;22.70;101646.00;;;;10540512;28;20276;-79
2021/06/12 09:36:33;;;;;;;20.17;18.15;;;;;23.30;101648.00;;;;10513149;28;20205;-79
2021/06/12 09:41:36;;;;;;;19.63;17.75;;;;;22.40;101669.00;;;;10525971;28;20211;-80
2021/06/12 09:46:45;;;;;;;19.60;17.60;;;;;22.10;101667.00;;;;10524204;28;20762;-79
2021/06/12 09:52:07;;;;;;;20.40;18.30;;;;;22.40;101671.00;;;;10498357;28;20190;-79
2021/06/12 09:57:15;;;;;;;20.70;18.50;;;;;21.90;101670.00;;;;10495432;28;20193;-80
2021/06/12 10:02:41;;;;;;;18.52;16.65;;;;;22.30;101676.00;;;;10481727;28;20687;-80
2021/06/12 10:07:43;;;;;;;17.60;15.90;;;;;23.30;101667.00;;;;10522882;28;20264;-80
2021/06/12 10:12:48;;;;;;;18.08;16.20;;;;;24.40;101660.00;;;;10513318;28;20508;-81
2021/06/12 10:17:52;;;;;;;15.88;14.38;;;;;25.20;101661.00;;;;10501641;28;20232;-81
2021/06/12 10:22:56;;;;;;;17.00;15.48;;;;;24.80;101667.00;;;;10481285;28;20205;-81
2021/06/12 10:27:59;;;;;;;17.20;15.57;;;;;25.50;101658.00;;;;10494817;28;20227;-81
2021/06/12 10:33:02;;;;;;;16.83;15.25;;;;;26.00;101657.00;;;;10504945;28;20209;-81
2021/06/12 10:38:08;;;;;;;16.63;15.02;;;;;25.90;101650.00;;;;10504706;28;20643;-81
2021/06/12 10:43:16;;;;;;;15.02;13.55;;;;;27.50;101639.00;;;;10483860;28;20571;-81
2021/06/12 10:48:37;;;;;;;13.80;12.50;;;;;28.60;101633.00;;;;10537460;28;20627;-82
2021/06/12 10:53:41;;;;;;;13.73;12.35;;;;;27.60;101633.00;;;;10500208;28;20273;-81
2021/06/12 10:58:45;;;;;;;11.77;10.68;;;;;28.40;101627.00;;;;10509615;28;20204;-81
2021/06/12 11:04:02;;;;;;;12.60;11.48;;;;;28.90;101614.00;;;;10494530;28;20289;-81
2021/06/12 11:09:19;;;;;;;12.52;11.15;;;;;30.00;101595.00;;;;10512415;28;20189;-82
2021/06/12 11:14:24;;;;;;;12.35;11.25;;;;;29.80;101600.00;;;;10500013;28;20567;-82
2021/06/12 11:19:29;;;;;;;10.88;9.77;;;;;30.50;101598.00;;;;10480661;28;20221;-82
2021/06/12 11:24:32;;;;;;;9.38;7.22;;;;;30.90;101595.00;;;;10507746;28;20219;-82
2021/06/12 11:29:34;;;;;;;7.85;7.05;;;;;29.80;101589.00;;;;10515487;28;20641;-81
2021/06/12 11:34:48;;;;;;;7.43;5.35;;;;;27.50;101593.00;;;;10492736;28;20220;-80
2021/06/12 11:39:56;;;;;;;6.70;6.20;;;;;25.40;101609.00;;;;10493599;28;20296;-81
2021/06/12 11:45:19;;;;;;;9.30;8.13;;;;;24.20;101622.00;;;;10485713;28;20189;-81
2021/06/12 11:50:29;;;;;;;7.05;6.45;;;;;23.60;101624.00;;;;10481082;28;20189;-81
2021/06/12 11:55:39;;;;;;;13.23;10.57;;;;;23.40;101631.00;;;;10477405;28;20210;-80
2021/06/12 12:00:48;;;;;;;15.13;11.07;;;;;24.70;101619.00;;;;10501256;28;20212;-82
2021/06/12 12:05:58;;;;;;;14.40;10.60;;;;;24.80;101619.00;;;;10458494;28;20259;-80
2021/06/12 12:11:06;;;;;;;15.57;10.10;;;;;24.60;101633.00;;;;10466023;28;20186;-79
2021/06/12 12:16:21;;;;;;;10.20;7.53;;;;;24.00;101633.00;;;;10501574;28;20593;-79
2021/06/12 12:21:29;;;;;;;9.77;7.13;;;;;25.40;101631.00;;;;10491036;28;20665;-80
2021/06/12 12:26:31;;;;;;;7.55;5.85;;;;;27.60;101634.00;;;;10477004;28;20212;-80
2021/06/12 12:31:41;;;;;;;7.88;6.32;;;;;28.50;101643.00;;;;10461918;28;20220;-80
2021/06/12 12:36:52;;;;;;;10.63;6.07;;;;;26.10;101644.00;;;;10494960;28;20210;-79
2021/06/12 12:41:57;;;;;;;11.32;6.18;;;;;24.90;101652.00;;;;10473111;28;20209;-80
2021/06/12 12:46:59;;;;;;;11.32;6.25;;;;;25.40;101643.00;;;;10520021;28;20185;-80
2021/06/12 12:52:04;;;;;;;7.72;5.80;;;;;27.10;101662.00;;;;10455326;28;20280;-80
2021/06/12 12:57:08;;;;;;;8.10;5.72;;;;;27.50;101648.00;;;;10498068;28;20207;-82
2021/06/12 13:02:11;;;;;;;10.20;5.22;;;;;27.10;101656.00;;;;10470378;28;20209;-79
2021/06/12 13:07:18;;;;;;;6.95;4.72;;;;;25.60;101648.00;;;;10496211;28;20525;-81
2021/06/12 13:12:20;;;;;;;6.55;4.47;;;;;27.10;101645.00;;;;10454858;28;20193;-79
2021/06/12 13:17:24;;;;;;;6.82;4.57;;;;;26.50;101659.00;;;;10489644;28;20193;-78
2021/06/12 13:22:36;;;;;;;8.63;4.45;;;;;27.50;101664.00;;;;10485676;28;20212;-81
2021/06/12 13:27:41;;;;;;;7.25;4.78;;;;;28.20;101674.00;;;;10497065;28;20181;-78
2021/06/12 13:32:53;;;;;;;6.78;4.68;;;;;26.60;101674.00;;;;10503733;28;20217;-78
2021/06/12 13:38:15;;;;;;;3.75;3.17;;;;;27.00;101672.00;;;;10466198;28;20197;-78
2021/06/12 13:43:27;;;;;;;6.88;3.55;;;;;25.90;101676.00;;;;10511971;28;20283;-81
2021/06/12 13:48:30;;;;;;;4.53;3.97;;;;;27.50;101679.00;;;;10479303;28;20192;-81
2021/06/12 13:53:39;;;;;;;8.80;3.53;;;;;30.30;101670.00;;;;10473020;28;20204;-81
2021/06/12 13:58:42;;;;;;;7.25;3.22;;;;;30.90;101683.00;;;;10447219;28;20296;-81
2021/06/12 14:03:46;;;;;;;4.05;2.88;;;;;33.50;101680.00;;;;10501341;28;20193;-80
2021/06/12 14:08:47;;;;;;;4.88;2.78;;;;;33.70;101688.00;;;;10510261;28;20199;-79
2021/06/12 14:13:50;;;;;;;6.38;3.78;;;;;32.10;101706.00;;;;10494712;28;20226;-81
2021/06/12 14:18:52;;;;;;;7.00;3.97;;;;;27.90;101682.00;;;;10493770;28;20222;-80
2021/06/12 14:23:54;;;;;;;6.57;4.13;;;;;32.30;101685.00;;;;10474205;28;20213;-80
2021/06/12 14:28:58;;;;;;;10.05;4.22;;;;;33.30;101693.00;;;;10469229;28;20207;-80
2021/06/12 14:34:00;;;;;;;7.10;3.42;;;;;33.90;101687.00;;;;10468933;28;20217;-80
2021/06/12 14:39:03;;;;;;;8.15;3.50;;;;;34.00;101701.00;;;;10485142;28;20201;-80
2021/06/12 14:44:05;;;;;;;8.27;4.00;;;;;34.40;101705.00;;;;10490056;28;20216;-80
2021/06/12 14:49:08;;;;;;;7.57;3.97;;;;;34.10;101717.00;;;;10476794;28;20209;-80
2021/06/12 14:54:10;;;;;;;7.78;4.05;;;;;34.10;101707.00;;;;10509481;28;20254;-81
2021/06/12 14:59:12;;;;;;;5.40;3.83;;;;;34.80;101709.00;;;;10508396;28;20204;-81
2021/06/12 15:04:15;;;;;;;8.38;4.55;;;;;30.90;101726.00;;;;10475747;28;20279;-81
2021/06/12 15:09:17;;;;;;;8.98;4.70;;;;;33.20;101708.00;;;;10488324;28;20198;-80
2021/06/12 15:14:19;;;;;;;7.53;4.20;;;;;32.70;101714.00;;;;10450916;28;20205;-81
2021/06/12 15:19:25;;;;;;;9.45;4.57;;;;;33.80;101704.00;;;;10466428;28;20280;-79
2021/06/12 15:24:28;;;;;;;7.47;4.20;;;;;28.60;101715.00;;;;10466233;28;20637;-80
2021/06/12 15:29:31;;;;;;;9.55;4.20;;;;;28.70;101719.00;;;;10484919;28;20204;-79
2021/06/12 15:34:33;;;;;;;6.95;4.00;;;;;33.70;101715.00;;;;10490722;28;20262;-79
2021/06/12 15:39:35;;;;;;;7.50;3.90;;;;;34.30;101727.00;;;;10465681;28;20283;-80
2021/06/12 15:44:40;;;;;;;6.60;3.55;;;;;31.80;101724.00;;;;10507158;28;20232;-79
2021/06/12 15:49:42;;;;;;;4.32;2.85;;;;;29.10;101757.00;;;;10490486;28;20236;-80
2021/06/12 15:54:44;;;;;;;11.18;3.40;;;;;26.20;101750.00;;;;10497947;28;20287;-80
2021/06/12 15:59:46;;;;;;;5.75;2.40;;;;;25.30;101745.00;;;;10502759;28;20197;-80
2021/06/12 16:04:48;;;;;;;5.88;3.10;;;;;24.70;101751.00;;;;10489890;28;20246;-80
2021/06/12 16:09:49;;;;;;;5.15;2.70;;;;;24.30;101760.00;;;;10504647;28;20279;-80
2021/06/12 16:14:51;;;;;;;7.20;3.42;;;;;23.60;101755.00;;;;10507300;28;20197;-80
2021/06/12 16:19:53;;;;;;;6.97;2.88;;;;;23.30;101767.00;;;;10506526;28;20213;-79
2021/06/12 16:24:55;;;;;;;5.30;3.25;;;;;23.00;101771.00;;;;10512040;28;20297;-79
2021/06/12 16:29:58;;;;;;;4.60;2.70;;;;;22.70;101766.00;;;;10506939;28;20188;-80
2021/06/12 16:35:00;;;;;;;4.82;2.65;;;;;22.70;101763.00;;;;10506861;28;20354;-80
2021/06/12 16:40:07;;;;;;;6.68;2.92;;;;;22.60;101767.00;;;;10479615;28;20599;-80
2021/06/12 16:45:12;;;;;;;6.63;2.90;;;;;22.50;101778.00;;;;10482393;28;20195;-80
2021/06/12 16:50:15;;;;;;;5.57;2.67;;;;;22.20;101772.00;;;;10482246;28;20663;-80
2021/06/12 17:00:22;;;;;;;5.50;3.25;;;;;21.90;101793.00;;;;10506462;28;20220;-80
2021/06/12 17:05:25;;;;;;;4.72;2.72;;;;;21.80;101794.00;;;;10490872;28;20193;-80
2021/06/12 17:10:27;;;;;;;5.28;2.58;;;;;21.70;101780.00;;;;10489224;28;20189;-81
2021/06/12 17:15:32;;;;;;;6.32;2.67;;;;;21.80;101799.00;;;;10466029;28;20939;-80
2021/06/12 17:20:34;;;;;;;5.10;2.92;;;;;21.60;101804.00;;;;10466687;28;20209;-80
2021/06/12 17:25:37;;;;;;;7.43;2.63;;;;;21.50;101809.00;;;;10488640;28;20201;-81
2021/06/12 17:30:40;;;;;;;7.20;2.65;;;;;21.40;101808.00;;;;10496615;28;20203;-80
2021/06/12 17:35:42;;;;;;;4.63;1.90;;;;;21.20;101813.00;;;;10454426;28;20591;-80
2021/06/12 17:40:44;;;;;;;3.65;1.40;;;;;21.20;101824.00;;;;10484031;28;20308;-80
2021/06/12 17:45:47;;;;;;;3.80;1.45;;;;;21.00;101825.00;;;;10471658;28;20553;-80
2021/06/12 17:50:49;;;;;;;1.63;1.20;;;;;20.80;101826.00;;;;10462989;28;20287;-80
2021/06/12 17:55:51;;;;;;;6.32;2.15;;;;;20.60;101818.00;;;;10495372;28;20201;-80
2021/06/12 18:00:54;;;;;;;3.20;1.60;;;;;20.40;101837.00;;;;10529029;28;20219;-80
2021/06/12 18:05:56;;;;;;;3.60;1.77;;;;;20.30;101832.00;;;;10479482;28;20304;-80
2021/06/12 18:10:58;;;;;;;7.32;2.00;;;;;20.20;101850.00;;;;10469973;28;20194;-80
2021/06/12 18:16:00;;;;;;;6.38;1.60;;;;;20.00;101847.00;;;;10438004;28;20702;-80
2021/06/12 18:21:03;;;;;;;6.43;1.40;;;;;20.00;101853.00;;;;10456428;28;20219;-80
2021/06/12 18:26:05;;;;;;;2.88;1.40;;;;;19.90;101853.00;;;;10455674;28;20201;-80
2021/06/12 18:31:07;;;;;;;4.45;1.25;;;;;19.90;101873.00;;;;10467593;28;20193;-80
2021/06/12 18:36:09;;;;;;;4.93;1.77;;;;;19.80;101872.00;;;;10488984;28;20233;-80
2021/06/12 18:41:11;;;;;;;2.45;1.48;;;;;19.70;101876.00;;;;10438626;28;20206;-80
2021/06/12 18:46:13;;;;;;;6.25;2.35;;;;;19.60;101877.00;;;;10476852;28;20216;-78
2021/06/12 18:51:15;;;;;;;6.60;2.20;;;;;19.40;101893.00;;;;10493400;28;20200;-79
2021/06/12 18:56:17;;;;;;;5.70;1.80;;;;;19.40;101898.00;;;;10510048;28;20203;-80
2021/06/12 19:01:19;;;;;;;6.07;2.20;;;;;19.20;101903.00;;;;10504107;28;20200;-80
2021/06/12 19:06:21;;;;;;;5.03;2.45;;;;;19.00;101899.00;;;;10476249;28;20193;-79
2021/06/12 19:11:23;;;;;;;5.93;2.28;;;;;19.20;101912.00;;;;10494041;28;20185;-81
2021/06/12 19:16:25;;;;;;;8.63;3.05;;;;;19.90;101907.00;;;;10449831;28;20208;-78
2021/06/12 19:21:27;;;;;;;6.70;2.97;;;;;20.80;101906.00;;;;10466327;28;20209;-79
2021/06/12 19:26:29;;;;;;;6.57;3.05;;;;;19.60;101924.00;;;;10450014;28;20236;-79
2021/06/12 19:31:32;;;;;;;6.13;2.63;;;;;18.80;101936.00;;;;10449799;28;20252;-79
2021/06/12 19:36:43;;;;;;;5.15;2.55;;;;;18.30;101945.00;;;;10489906;28;20211;-79
2021/06/12 19:41:45;;;;;;;5.35;3.10;;;;;17.90;101958.00;;;;10524792;28;20204;-79
2021/06/12 19:46:50;;;;;;;7.13;3.13;;;;;17.50;101952.00;;;;10474191;28;20295;-79
2021/06/12 19:51:54;;;;;;;5.67;2.67;;;;;17.30;101975.00;;;;10491376;28;20193;-79
2021/06/12 19:56:55;;;;;;;7.47;3.10;;;;;17.10;101977.00;;;;10449794;28;20301;-78
2021/06/12 20:01:57;;;;;;;7.97;3.20;;;;;16.90;101995.00;;;;10466659;28;20785;-78
2021/06/12 20:06:59;;;;;;;8.27;3.27;;;;;16.70;102003.00;;;;10476508;28;20236;-79
2021/06/12 20:12:01;;;;;;;5.17;3.20;;;;;16.60;102002.00;;;;10465851;28;20186;-79
2021/06/12 20:17:04;;;;;;;5.70;2.70;;;;;16.50;102011.00;;;;10484000;28;20200;-79
2021/06/12 20:22:06;;;;;;;6.97;3.10;;;;;16.30;102029.00;;;;10473720;28;20211;-79
2021/06/12 20:27:08;;;;;;;5.43;2.60;;;;;16.20;102036.00;;;;10465499;28;20193;-79
2021/06/12 20:32:10;;;;;;;5.20;2.97;;;;;16.00;102031.00;;;;10486634;28;20212;-78
2021/06/12 20:37:12;;;;;;;8.30;2.87;;;;;15.90;102034.00;;;;10490267;28;20207;-79
2021/06/12 20:42:14;;;;;;;10.00;3.70;;;;;15.80;102044.00;;;;10460196;28;20606;-78
2021/06/12 20:47:16;;;;;;;5.23;3.20;;;;;15.70;102051.00;;;;10464727;28;20644;-79
2021/06/12 20:52:18;;;;;;;6.03;3.53;;;;;15.60;102046.00;;;;10481441;28;20190;-79
2021/06/12 20:57:20;;;;;;;8.77;3.47;;;;;15.50;102059.00;;;;10502098;28;20197;-79
2021/06/12 21:02:22;;;;;;;7.17;4.17;;;;;15.50;102066.00;;;;10513840;28;20208;-80
2021/06/12 21:07:23;;;;;;;5.83;3.10;;;;;15.40;102070.00;;;;10481616;28;20196;-78
2021/06/12 21:12:25;;;;;;;9.40;3.80;;;;;15.30;102081.00;;;;10528587;28;20184;-78
2021/06/12 21:17:29;;;;;;;10.60;3.70;;;;;15.20;102085.00;;;;10522884;28;20196;-79
2021/06/12 21:22:31;;;;;;;6.93;3.77;;;;;15.20;102081.00;;;;10538533;28;20208;-79
2021/06/12 21:27:33;;;;;;;8.87;3.60;;;;;15.10;102076.00;;;;10522535;28;20207;-79
2021/06/12 21:32:35;;;;;;;9.40;4.03;;;;;15.00;102087.00;;;;10512763;28;20278;-79
2021/06/12 21:37:37;;;;;;;6.63;3.67;;;;;14.80;102088.00;;;;10479907;28;20213;-79
2021/06/12 21:42:40;;;;;;;7.50;4.07;;;;;14.60;102084.00;;;;10496957;28;20205;-79
2021/06/12 21:47:42;;;;;;;9.13;4.23;;;;;14.40;102100.00;;;;10495511;28;20221;-79
2021/06/12 21:52:44;;;;;;;11.07;4.87;;;;;14.40;102096.00;;;;10495010;28;20196;-79
2021/06/12 21:57:46;;;;;;;8.20;4.50;;;;;14.30;102104.00;;;;10460029;28;20194;-79
2021/06/12 22:02:48;;;;;;;7.53;4.63;;;;;14.20;102100.00;;;;10486595;28;20218;-79
2021/06/12 22:07:50;;;;;;;8.50;5.17;;;;;14.00;102108.00;;;;10480190;28;20200;-78
2021/06/12 22:12:52;;;;;;;14.27;5.57;;;;;13.90;102122.00;;;;10472840;28;20248;-79
2021/06/12 22:17:54;;;;;;;7.30;5.30;;;;;13.70;102122.00;;;;10478254;28;20193;-78
2021/06/12 22:22:56;;;;;;;10.33;6.50;;;;;13.60;102133.00;;;;10512305;28;20217;-79
2021/06/12 22:27:59;;;;;;;9.97;5.60;;;;;13.50;102144.00;;;;10494584;28;20196;-79
2021/06/12 22:33:02;;;;;;;9.77;6.07;;;;;13.50;102137.00;;;;10494665;28;20262;-78
2021/06/12 22:38:04;;;;;;;10.30;6.67;;;;;13.40;102140.00;;;;10459740;28;20275;-79
2021/06/12 22:43:08;;;;;;;10.53;6.67;;;;;13.40;102151.00;;;;10472548;28;20205;-79
2021/06/12 22:48:11;;;;;;;9.70;5.80;;;;;13.30;102150.00;;;;10468774;28;20281;-79
2021/06/12 22:53:13;;;;;;;10.43;5.40;;;;;13.20;102143.00;;;;10472600;28;20208;-78
2021/06/12 22:58:15;;;;;;;7.67;5.80;;;;;13.20;102156.00;;;;10487833;28;20205;-79
2021/06/12 23:03:18;;;;;;;8.57;6.00;;;;;13.20;102152.00;;;;10476704;28;20217;-79
2021/06/12 23:08:20;;;;;;;13.03;6.60;;;;;13.10;102155.00;;;;10493224;28;20188;-79
2021/06/12 23:13:22;;;;;;;10.70;5.97;;;;;13.10;102152.00;;;;10451626;28;20194;-79
2021/06/12 23:18:24;;;;;;;11.90;6.30;;;;;13.00;102159.00;;;;10450385;28;20271;-78
2021/06/12 23:23:25;;;;;;;9.90;6.77;;;;;12.90;102163.00;;;;10451253;28;20214;-78
2021/06/12 23:28:27;;;;;;;13.40;7.10;;;;;12.70;102162.00;;;;10476889;28;20196;-79
2021/06/12 23:33:29;;;;;;;10.20;6.43;;;;;12.60;102163.00;;;;10491077;28;20270;-78
2021/06/12 23:38:31;;;;;;;13.70;7.30;;;;;12.50;102161.00;;;;10491860;28;20668;-79
2021/06/12 23:43:33;;;;;;;11.80;7.20;;;;;12.40;102171.00;;;;10475250;28;20205;-78
2021/06/12 23:48:35;;;;;;;12.90;8.70;;;;;12.40;102161.00;;;;10474408;28;20215;-79
2021/06/12 23:53:46;;;;;;;10.50;7.97;;;;;12.40;102175.00;;;;10474389;28;20189;-78
2021/06/12 23:58:48;;;;;;;11.23;8.10;;;;;12.30;102169.00;;;;10491238;28;20283;-79
